sensor_id;sensor_type;location;lat;lon;timestamp;P1;durP1;ratioP1;P2;durP2;ratioP2
56291;SDS011;54008;53.606;9.462;2022-12-18T02:27:59;17.73;;;8.32;;
56291;SDS011;54008;53.606;9.462;2022-12-18T02:30:26;19.10;;;8.32;;
56291;SDS011;54008;53.606;9.462;2022-12-18T02:32:56;17.30;;;7.68;;
56291;SDS011;54008;53.606;9.462;2022-12-18T02:35:24;19.35;;;7.63;;
56291;SDS011;54008;53.606;9.462;2022-12-18T02:37:56;19.77;;;7.35;;
56291;SDS011;54008;53.606;9.462;2022-12-18T02:40:23;20.70;;;8.07;;
56291;SDS011;54008;53.606;9.462;2022-12-18T02:42:51;19.73;;;7.72;;
56291;SDS011;54008;53.606;9.462;2022-12-18T02:45:16;17.48;;;6.45;;
56291;SDS011;54008;53.606;9.462;2022-12-18T02:47:43;21.00;;;7.10;;
56291;SDS011;54008;53.606;9.462;2022-12-18T02:53:06;18.10;;;6.80;;
56291;SDS011;54008;53.606;9.462;2022-12-18T02:56:00;18.08;;;6.85;;
56291;SDS011;54008;53.606;9.462;2022-12-18T03:01:13;13.95;;;6.38;;
56291;SDS011;54008;53.606;9.462;2022-12-18T03:03:47;15.93;;;6.95;;
56291;SDS011;54008;53.606;9.462;2022-12-18T03:06:21;18.63;;;6.88;;
56291;SDS011;54008;53.606;9.462;2022-12-18T03:08:51;16.42;;;6.57;;
56291;SDS011;54008;53.606;9.462;2022-12-18T03:11:24;17.38;;;6.78;;
56291;SDS011;54008;53.606;9.462;2022-12-18T03:14:12;15.88;;;7.25;;
56291;SDS011;54008;53.606;9.462;2022-12-18T03:16:40;14.02;;;6.05;;
56291;SDS011;54008;53.606;9.462;2022-12-18T03:19:09;19.40;;;7.80;;
56291;SDS011;54008;53.606;9.462;2022-12-18T03:21:42;18.20;;;7.22;;
56291;SDS011;54008;53.606;9.462;2022-12-18T03:24:10;17.27;;;6.50;;
56291;SDS011;54008;53.606;9.462;2022-12-18T03:26:37;18.60;;;7.95;;
56291;SDS011;54008;53.606;9.462;2022-12-18T03:29:27;17.50;;;7.40;;
56291;SDS011;54008;53.606;9.462;2022-12-18T03:32:05;16.95;;;7.22;;
56291;SDS011;54008;53.606;9.462;2022-12-18T03:34:34;21.23;;;7.80;;
56291;SDS011;54008;53.606;9.462;2022-12-18T03:37:02;14.07;;;6.63;;
56291;SDS011;54008;53.606;9.462;2022-12-18T03:39:28;21.98;;;6.65;;
56291;SDS011;54008;53.606;9.462;2022-12-18T03:44:31;15.85;;;7.05;;
56291;SDS011;54008;53.606;9.462;2022-12-18T03:47:07;13.45;;;6.22;;
56291;SDS011;54008;53.606;9.462;2022-12-18T03:49:36;17.50;;;6.88;;
56291;SDS011;54008;53.606;9.462;2022-12-18T03:55:21;17.02;;;7.10;;
56291;SDS011;54008;53.606;9.462;2022-12-18T03:57:48;16.27;;;6.50;;
56291;SDS011;54008;53.606;9.462;2022-12-18T04:00:17;16.65;;;7.50;;
56291;SDS011;54008;53.606;9.462;2022-12-18T04:02:48;20.38;;;7.22;;
56291;SDS011;54008;53.606;9.462;2022-12-18T04:05:17;20.27;;;7.82;;
56291;SDS011;54008;53.606;9.462;2022-12-18T04:07:44;14.02;;;7.03;;
56291;SDS011;54008;53.606;9.462;2022-12-18T04:10:13;12.10;;;6.85;;
56291;SDS011;54008;53.606;9.462;2022-12-18T04:12:40;19.33;;;7.10;;
56291;SDS011;54008;53.606;9.462;2022-12-18T04:15:06;18.40;;;6.93;;
56291;SDS011;54008;53.606;9.462;2022-12-18T04:17:32;16.52;;;7.13;;
56291;SDS011;54008;53.606;9.462;2022-12-18T04:19:57;17.02;;;6.53;;
56291;SDS011;54008;53.606;9.462;2022-12-18T04:22:22;16.80;;;6.03;;
56291;SDS011;54008;53.606;9.462;2022-12-18T04:24:47;14.23;;;6.53;;
56291;SDS011;54008;53.606;9.462;2022-12-18T04:27:13;20.50;;;7.45;;
56291;SDS011;54008;53.606;9.462;2022-12-18T04:29:38;20.70;;;6.63;;
56291;SDS011;54008;53.606;9.462;2022-12-18T04:32:04;16.75;;;6.38;;
56291;SDS011;54008;53.606;9.462;2022-12-18T04:34:29;17.67;;;7.32;;
56291;SDS011;54008;53.606;9.462;2022-12-18T04:36:55;16.83;;;7.18;;
56291;SDS011;54008;53.606;9.462;2022-12-18T04:39:21;14.93;;;6.40;;
56291;SDS011;54008;53.606;9.462;2022-12-18T04:41:46;14.07;;;6.57;;
56291;SDS011;54008;53.606;9.462;2022-12-18T04:44:11;17.08;;;6.72;;
56291;SDS011;54008;53.606;9.462;2022-12-18T04:46:36;14.35;;;6.70;;
56291;SDS011;54008;53.606;9.462;2022-12-18T04:49:02;15.55;;;6.97;;
56291;SDS011;54008;53.606;9.462;2022-12-18T04:51:27;18.02;;;6.97;;
56291;SDS011;54008;53.606;9.462;2022-12-18T04:53:53;13.38;;;7.03;;
56291;SDS011;54008;53.606;9.462;2022-12-18T04:56:20;15.68;;;6.95;;
56291;SDS011;54008;53.606;9.462;2022-12-18T04:58:46;23.38;;;7.85;;
56291;SDS011;54008;53.606;9.462;2022-12-18T05:01:12;12.32;;;6.28;;
56291;SDS011;54008;53.606;9.462;2022-12-18T05:03:39;16.65;;;7.50;;
56291;SDS011;54008;53.606;9.462;2022-12-18T05:06:05;10.60;;;5.63;;
56291;SDS011;54008;53.606;9.462;2022-12-18T05:08:30;12.88;;;6.07;;
56291;SDS011;54008;53.606;9.462;2022-12-18T05:11:00;15.48;;;6.25;;
56291;SDS011;54008;53.606;9.462;2022-12-18T05:13:25;17.25;;;6.40;;
56291;SDS011;54008;53.606;9.462;2022-12-18T05:15:51;14.90;;;5.82;;
56291;SDS011;54008;53.606;9.462;2022-12-18T05:18:17;17.85;;;7.53;;
56291;SDS011;54008;53.606;9.462;2022-12-18T05:20:43;17.45;;;7.32;;
56291;SDS011;54008;53.606;9.462;2022-12-18T05:23:08;18.55;;;7.15;;
56291;SDS011;54008;53.606;9.462;2022-12-18T05:25:33;23.27;;;7.05;;
56291;SDS011;54008;53.606;9.462;2022-12-18T05:27:59;15.18;;;6.53;;
56291;SDS011;54008;53.606;9.462;2022-12-18T05:30:24;15.02;;;6.80;;
56291;SDS011;54008;53.606;9.462;2022-12-18T05:32:49;14.55;;;6.22;;
56291;SDS011;54008;53.606;9.462;2022-12-18T05:35:15;17.20;;;6.50;;
56291;SDS011;54008;53.606;9.462;2022-12-18T05:37:40;15.23;;;5.43;;
56291;SDS011;54008;53.606;9.462;2022-12-18T05:40:05;17.20;;;6.15;;
56291;SDS011;54008;53.606;9.462;2022-12-18T05:42:31;19.08;;;7.38;;
56291;SDS011;54008;53.606;9.462;2022-12-18T05:44:56;20.83;;;7.45;;
56291;SDS011;54008;53.606;9.462;2022-12-18T05:47:22;20.75;;;8.77;;
56291;SDS011;54008;53.606;9.462;2022-12-18T05:49:47;26.80;;;8.32;;
56291;SDS011;54008;53.606;9.462;2022-12-18T05:52:12;21.23;;;7.90;;
56291;SDS011;54008;53.606;9.462;2022-12-18T05:54:37;24.65;;;8.65;;
56291;SDS011;54008;53.606;9.462;2022-12-18T05:57:03;16.85;;;7.35;;
56291;SDS011;54008;53.606;9.462;2022-12-18T05:59:29;13.85;;;6.47;;
56291;SDS011;54008;53.606;9.462;2022-12-18T06:01:54;18.00;;;6.85;;
56291;SDS011;54008;53.606;9.462;2022-12-18T06:04:19;17.73;;;6.80;;
56291;SDS011;54008;53.606;9.462;2022-12-18T06:06:44;15.93;;;5.75;;
56291;SDS011;54008;53.606;9.462;2022-12-18T06:09:10;13.25;;;6.38;;
56291;SDS011;54008;53.606;9.462;2022-12-18T06:11:35;12.20;;;6.13;;
56291;SDS011;54008;53.606;9.462;2022-12-18T06:14:02;15.50;;;6.65;;
56291;SDS011;54008;53.606;9.462;2022-12-18T06:16:29;21.00;;;6.78;;
56291;SDS011;54008;53.606;9.462;2022-12-18T06:18:58;19.45;;;7.28;;
56291;SDS011;54008;53.606;9.462;2022-12-18T06:21:24;13.65;;;6.35;;
56291;SDS011;54008;53.606;9.462;2022-12-18T06:23:49;14.80;;;6.10;;
56291;SDS011;54008;53.606;9.462;2022-12-18T06:26:15;14.48;;;5.95;;
56291;SDS011;54008;53.606;9.462;2022-12-18T06:28:40;18.08;;;6.97;;
56291;SDS011;54008;53.606;9.462;2022-12-18T06:31:06;19.05;;;6.05;;
56291;SDS011;54008;53.606;9.462;2022-12-18T06:33:32;14.40;;;5.43;;
56291;SDS011;54008;53.606;9.462;2022-12-18T06:36:02;12.35;;;5.50;;
56291;SDS011;54008;53.606;9.462;2022-12-18T06:38:36;14.02;;;6.38;;
56291;SDS011;54008;53.606;9.462;2022-12-18T06:41:13;17.27;;;7.47;;
56291;SDS011;54008;53.606;9.462;2022-12-18T06:43:40;14.75;;;6.18;;
56291;SDS011;54008;53.606;9.462;2022-12-18T06:46:05;16.42;;;6.75;;
56291;SDS011;54008;53.606;9.462;2022-12-18T06:48:31;12.32;;;6.13;;
56291;SDS011;54008;53.606;9.462;2022-12-18T06:50:57;18.27;;;7.43;;
56291;SDS011;54008;53.606;9.462;2022-12-18T06:53:22;25.75;;;9.15;;
56291;SDS011;54008;53.606;9.462;2022-12-18T06:55:48;24.70;;;8.85;;
56291;SDS011;54008;53.606;9.462;2022-12-18T06:58:13;22.65;;;8.50;;
56291;SDS011;54008;53.606;9.462;2022-12-18T07:00:39;25.50;;;8.35;;
56291;SDS011;54008;53.606;9.462;2022-12-18T07:03:04;28.27;;;9.55;;
56291;SDS011;54008;53.606;9.462;2022-12-18T07:05:29;21.55;;;8.43;;
56291;SDS011;54008;53.606;9.462;2022-12-18T07:07:55;26.38;;;7.88;;
56291;SDS011;54008;53.606;9.462;2022-12-18T07:10:20;27.30;;;9.40;;
56291;SDS011;54008;53.606;9.462;2022-12-18T07:12:45;20.83;;;9.10;;
56291;SDS011;54008;53.606;9.462;2022-12-18T07:15:11;23.90;;;9.35;;
56291;SDS011;54008;53.606;9.462;2022-12-18T07:17:36;19.50;;;8.88;;
56291;SDS011;54008;53.606;9.462;2022-12-18T07:20:01;24.35;;;9.00;;
56291;SDS011;54008;53.606;9.462;2022-12-18T07:22:27;21.85;;;9.40;;
56291;SDS011;54008;53.606;9.462;2022-12-18T07:24:52;26.70;;;9.77;;
56291;SDS011;54008;53.606;9.462;2022-12-18T07:27:17;28.27;;;8.93;;
56291;SDS011;54008;53.606;9.462;2022-12-18T07:29:43;26.33;;;8.52;;
56291;SDS011;54008;53.606;9.462;2022-12-18T07:32:08;29.48;;;8.10;;
56291;SDS011;54008;53.606;9.462;2022-12-18T07:34:33;21.42;;;8.32;;
56291;SDS011;54008;53.606;9.462;2022-12-18T07:36:59;18.75;;;7.53;;
56291;SDS011;54008;53.606;9.462;2022-12-18T07:39:24;20.67;;;7.63;;
56291;SDS011;54008;53.606;9.462;2022-12-18T07:41:49;17.42;;;6.55;;
56291;SDS011;54008;53.606;9.462;2022-12-18T07:44:35;17.58;;;5.90;;
56291;SDS011;54008;53.606;9.462;2022-12-18T07:47:00;15.18;;;6.10;;
56291;SDS011;54008;53.606;9.462;2022-12-18T07:49:26;17.17;;;5.85;;
56291;SDS011;54008;53.606;9.462;2022-12-18T07:51:51;14.90;;;6.25;;
56291;SDS011;54008;53.606;9.462;2022-12-18T07:54:22;9.38;;;4.32;;
56291;SDS011;54008;53.606;9.462;2022-12-18T07:56:48;12.38;;;5.15;;
56291;SDS011;54008;53.606;9.462;2022-12-18T07:59:13;12.80;;;5.75;;
56291;SDS011;54008;53.606;9.462;2022-12-18T08:01:39;21.35;;;7.20;;
56291;SDS011;54008;53.606;9.462;2022-12-18T08:04:04;28.98;;;9.05;;
56291;SDS011;54008;53.606;9.462;2022-12-18T08:06:29;24.85;;;8.98;;
56291;SDS011;54008;53.606;9.462;2022-12-18T08:08:55;19.00;;;8.70;;
56291;SDS011;54008;53.606;9.462;2022-12-18T08:11:21;27.58;;;8.20;;
56291;SDS011;54008;53.606;9.462;2022-12-18T08:13:48;21.33;;;9.10;;
56291;SDS011;54008;53.606;9.462;2022-12-18T08:16:13;21.40;;;8.35;;
56291;SDS011;54008;53.606;9.462;2022-12-18T08:18:42;20.10;;;8.02;;
56291;SDS011;54008;53.606;9.462;2022-12-18T08:21:15;20.67;;;9.35;;
56291;SDS011;54008;53.606;9.462;2022-12-18T08:23:46;23.92;;;9.23;;
56291;SDS011;54008;53.606;9.462;2022-12-18T08:26:11;20.52;;;9.20;;
56291;SDS011;54008;53.606;9.462;2022-12-18T08:28:37;19.05;;;7.65;;
56291;SDS011;54008;53.606;9.462;2022-12-18T08:31:03;17.42;;;7.95;;
56291;SDS011;54008;53.606;9.462;2022-12-18T08:33:28;17.08;;;6.80;;
56291;SDS011;54008;53.606;9.462;2022-12-18T08:35:54;15.82;;;6.38;;
56291;SDS011;54008;53.606;9.462;2022-12-18T08:38:19;16.00;;;6.30;;
56291;SDS011;54008;53.606;9.462;2022-12-18T08:40:44;13.77;;;5.88;;
56291;SDS011;54008;53.606;9.462;2022-12-18T08:43:10;11.27;;;5.70;;
56291;SDS011;54008;53.606;9.462;2022-12-18T08:45:54;14.65;;;6.38;;
56291;SDS011;54008;53.606;9.462;2022-12-18T08:48:20;26.27;;;7.35;;
56291;SDS011;54008;53.606;9.462;2022-12-18T08:51:07;18.30;;;8.00;;
56291;SDS011;54008;53.606;9.462;2022-12-18T08:53:31;15.85;;;6.90;;
56291;SDS011;54008;53.606;9.462;2022-12-18T08:55:57;24.48;;;8.48;;
56291;SDS011;54008;53.606;9.462;2022-12-18T08:58:22;18.75;;;8.10;;
56291;SDS011;54008;53.606;9.462;2022-12-18T09:00:48;23.35;;;9.32;;
56291;SDS011;54008;53.606;9.462;2022-12-18T09:03:14;25.92;;;8.90;;
56291;SDS011;54008;53.606;9.462;2022-12-18T09:05:43;27.10;;;10.13;;
56291;SDS011;54008;53.606;9.462;2022-12-18T09:08:10;29.80;;;10.48;;
56291;SDS011;54008;53.606;9.462;2022-12-18T09:10:43;29.17;;;10.77;;
56291;SDS011;54008;53.606;9.462;2022-12-18T09:13:10;31.05;;;10.70;;
56291;SDS011;54008;53.606;9.462;2022-12-18T09:15:42;31.50;;;11.45;;
56291;SDS011;54008;53.606;9.462;2022-12-18T09:18:12;21.55;;;8.80;;
56291;SDS011;54008;53.606;9.462;2022-12-18T09:20:39;22.83;;;8.02;;
56291;SDS011;54008;53.606;9.462;2022-12-18T09:23:06;21.73;;;7.93;;
56291;SDS011;54008;53.606;9.462;2022-12-18T09:25:32;20.98;;;7.72;;
56291;SDS011;54008;53.606;9.462;2022-12-18T09:28:01;16.13;;;7.63;;
56291;SDS011;54008;53.606;9.462;2022-12-18T09:30:37;17.13;;;6.00;;
56291;SDS011;54008;53.606;9.462;2022-12-18T09:33:03;17.42;;;7.15;;
56291;SDS011;54008;53.606;9.462;2022-12-18T09:35:28;18.73;;;6.90;;
56291;SDS011;54008;53.606;9.462;2022-12-18T09:37:54;17.88;;;7.72;;
56291;SDS011;54008;53.606;9.462;2022-12-18T09:40:21;20.30;;;8.07;;
56291;SDS011;54008;53.606;9.462;2022-12-18T09:42:57;18.25;;;7.22;;
56291;SDS011;54008;53.606;9.462;2022-12-18T09:45:25;20.42;;;7.15;;
56291;SDS011;54008;53.606;9.462;2022-12-18T09:47:51;15.65;;;7.05;;
56291;SDS011;54008;53.606;9.462;2022-12-18T09:50:32;11.52;;;5.70;;
56291;SDS011;54008;53.606;9.462;2022-12-18T09:53:09;17.55;;;6.25;;
56291;SDS011;54008;53.606;9.462;2022-12-18T09:55:41;16.95;;;6.70;;
56291;SDS011;54008;53.606;9.462;2022-12-18T10:00:34;18.63;;;5.72;;
56291;SDS011;54008;53.606;9.462;2022-12-18T10:03:01;12.82;;;5.57;;
56291;SDS011;54008;53.606;9.462;2022-12-18T10:11:30;13.75;;;5.28;;
56291;SDS011;54008;53.606;9.462;2022-12-18T10:19:41;14.80;;;5.32;;
56291;SDS011;54008;53.606;9.462;2022-12-18T10:22:17;15.80;;;6.03;;
56291;SDS011;54008;53.606;9.462;2022-12-18T10:24:55;14.25;;;5.68;;
56291;SDS011;54008;53.606;9.462;2022-12-18T10:27:43;11.27;;;5.82;;
56291;SDS011;54008;53.606;9.462;2022-12-18T10:30:13;10.73;;;5.22;;
56291;SDS011;54008;53.606;9.462;2022-12-18T10:32:40;10.50;;;5.38;;
56291;SDS011;54008;53.606;9.462;2022-12-18T10:35:08;10.90;;;5.50;;
56291;SDS011;54008;53.606;9.462;2022-12-18T10:37:58;11.73;;;5.13;;
56291;SDS011;54008;53.606;9.462;2022-12-18T10:40:48;7.63;;;5.20;;
56291;SDS011;54008;53.606;9.462;2022-12-18T10:43:19;10.82;;;4.93;;
56291;SDS011;54008;53.606;9.462;2022-12-18T10:46:00;11.25;;;5.25;;
56291;SDS011;54008;53.606;9.462;2022-12-18T10:48:26;13.82;;;5.60;;
56291;SDS011;54008;53.606;9.462;2022-12-18T10:50:52;9.20;;;4.70;;
56291;SDS011;54008;53.606;9.462;2022-12-18T10:53:23;11.18;;;5.35;;
56291;SDS011;54008;53.606;9.462;2022-12-18T10:55:50;12.82;;;5.30;;
56291;SDS011;54008;53.606;9.462;2022-12-18T10:58:28;10.63;;;5.35;;
56291;SDS011;54008;53.606;9.462;2022-12-18T11:03:41;13.10;;;6.25;;
56291;SDS011;54008;53.606;9.462;2022-12-18T11:06:12;12.55;;;5.30;;
56291;SDS011;54008;53.606;9.462;2022-12-18T11:08:39;16.15;;;4.97;;
56291;SDS011;54008;53.606;9.462;2022-12-18T16:06:35;27.67;;;11.18;;
56291;SDS011;54008;53.606;9.462;2022-12-18T16:09:01;28.40;;;10.75;;
56291;SDS011;54008;53.606;9.462;2022-12-18T16:11:27;31.88;;;11.00;;
56291;SDS011;54008;53.606;9.462;2022-12-18T16:14:04;31.98;;;11.18;;
56291;SDS011;54008;53.606;9.462;2022-12-18T16:16:30;28.45;;;10.52;;
56291;SDS011;54008;53.606;9.462;2022-12-18T16:18:56;31.25;;;11.23;;
56291;SDS011;54008;53.606;9.462;2022-12-18T16:21:21;27.10;;;11.20;;
56291;SDS011;54008;53.606;9.462;2022-12-18T16:23:46;26.90;;;10.52;;
56291;SDS011;54008;53.606;9.462;2022-12-18T16:26:38;24.50;;;9.75;;
56291;SDS011;54008;53.606;9.462;2022-12-18T16:29:03;29.42;;;10.30;;
56291;SDS011;54008;53.606;9.462;2022-12-18T16:31:29;30.30;;;10.75;;
56291;SDS011;54008;53.606;9.462;2022-12-18T16:37:00;26.20;;;10.43;;
56291;SDS011;54008;53.606;9.462;2022-12-18T16:39:26;29.92;;;11.23;;
56291;SDS011;54008;53.606;9.462;2022-12-18T16:41:52;33.33;;;11.93;;
56291;SDS011;54008;53.606;9.462;2022-12-18T16:44:18;33.58;;;12.80;;
56291;SDS011;54008;53.606;9.462;2022-12-18T16:46:44;31.92;;;12.13;;
56291;SDS011;54008;53.606;9.462;2022-12-18T16:49:10;29.27;;;10.85;;
56291;SDS011;54008;53.606;9.462;2022-12-18T16:51:37;35.35;;;10.32;;
56291;SDS011;54008;53.606;9.462;2022-12-18T16:54:02;28.42;;;9.77;;
56291;SDS011;54008;53.606;9.462;2022-12-18T16:56:29;28.60;;;11.40;;
56291;SDS011;54008;53.606;9.462;2022-12-18T16:58:55;32.08;;;11.93;;
56291;SDS011;54008;53.606;9.462;2022-12-18T17:01:22;32.25;;;12.40;;
56291;SDS011;54008;53.606;9.462;2022-12-18T17:03:52;28.50;;;12.35;;
56291;SDS011;54008;53.606;9.462;2022-12-18T17:06:19;30.10;;;11.63;;
56291;SDS011;54008;53.606;9.462;2022-12-18T17:08:46;28.30;;;9.98;;
56291;SDS011;54008;53.606;9.462;2022-12-18T17:11:11;31.35;;;12.32;;
56291;SDS011;54008;53.606;9.462;2022-12-18T17:13:37;44.10;;;14.10;;
56291;SDS011;54008;53.606;9.462;2022-12-18T17:16:05;33.92;;;11.82;;
56291;SDS011;54008;53.606;9.462;2022-12-18T17:18:32;34.00;;;11.98;;
56291;SDS011;54008;53.606;9.462;2022-12-18T17:21:01;33.47;;;13.77;;
56291;SDS011;54008;53.606;9.462;2022-12-18T17:23:28;32.63;;;12.50;;
56291;SDS011;54008;53.606;9.462;2022-12-18T17:25:57;33.88;;;12.32;;
56291;SDS011;54008;53.606;9.462;2022-12-18T17:28:27;40.83;;;12.23;;
56291;SDS011;54008;53.606;9.462;2022-12-18T17:30:53;37.80;;;12.95;;
56291;SDS011;54008;53.606;9.462;2022-12-18T17:33:20;30.52;;;11.80;;
56291;SDS011;54008;53.606;9.462;2022-12-18T17:35:45;36.00;;;12.32;;
56291;SDS011;54008;53.606;9.462;2022-12-18T17:38:11;38.38;;;11.98;;
56291;SDS011;54008;53.606;9.462;2022-12-18T17:40:36;39.60;;;11.75;;
56291;SDS011;54008;53.606;9.462;2022-12-18T17:43:02;40.13;;;13.15;;
56291;SDS011;54008;53.606;9.462;2022-12-18T17:45:28;36.35;;;13.30;;
56291;SDS011;54008;53.606;9.462;2022-12-18T17:47:53;32.78;;;12.57;;
56291;SDS011;54008;53.606;9.462;2022-12-18T17:50:18;33.58;;;12.02;;
56291;SDS011;54008;53.606;9.462;2022-12-18T17:52:44;34.83;;;14.13;;
56291;SDS011;54008;53.606;9.462;2022-12-18T17:55:09;35.22;;;12.70;;
56291;SDS011;54008;53.606;9.462;2022-12-18T17:57:35;30.33;;;10.98;;
56291;SDS011;54008;53.606;9.462;2022-12-18T18:00:00;36.38;;;13.00;;
56291;SDS011;54008;53.606;9.462;2022-12-18T18:02:27;40.00;;;12.88;;
56291;SDS011;54008;53.606;9.462;2022-12-18T18:04:53;33.92;;;10.88;;
56291;SDS011;54008;53.606;9.462;2022-12-18T18:07:18;33.25;;;13.77;;
56291;SDS011;54008;53.606;9.462;2022-12-18T18:09:43;35.95;;;14.30;;
56291;SDS011;54008;53.606;9.462;2022-12-18T18:12:08;34.90;;;12.68;;
56291;SDS011;54008;53.606;9.462;2022-12-18T18:14:53;42.20;;;13.93;;
56291;SDS011;54008;53.606;9.462;2022-12-18T18:17:18;36.42;;;11.60;;
56291;SDS011;54008;53.606;9.462;2022-12-18T18:19:43;35.70;;;12.15;;
56291;SDS011;54008;53.606;9.462;2022-12-18T18:22:08;32.63;;;11.27;;
56291;SDS011;54008;53.606;9.462;2022-12-18T18:24:34;33.22;;;11.25;;
56291;SDS011;54008;53.606;9.462;2022-12-18T18:26:59;31.52;;;11.15;;
56291;SDS011;54008;53.606;9.462;2022-12-18T18:29:25;28.98;;;10.82;;
56291;SDS011;54008;53.606;9.462;2022-12-18T18:31:51;29.45;;;10.38;;
56291;SDS011;54008;53.606;9.462;2022-12-18T18:34:17;33.05;;;10.50;;
56291;SDS011;54008;53.606;9.462;2022-12-18T18:36:44;29.90;;;10.27;;
56291;SDS011;54008;53.606;9.462;2022-12-18T18:39:10;29.30;;;10.50;;
56291;SDS011;54008;53.606;9.462;2022-12-18T18:41:36;32.35;;;11.23;;
56291;SDS011;54008;53.606;9.462;2022-12-18T18:44:01;28.55;;;10.25;;
56291;SDS011;54008;53.606;9.462;2022-12-18T18:46:27;28.63;;;10.35;;
56291;SDS011;54008;53.606;9.462;2022-12-18T18:48:52;31.90;;;11.10;;
56291;SDS011;54008;53.606;9.462;2022-12-18T18:51:19;30.70;;;10.63;;
56291;SDS011;54008;53.606;9.462;2022-12-18T18:53:45;32.78;;;10.07;;
56291;SDS011;54008;53.606;9.462;2022-12-18T18:56:12;24.20;;;9.23;;
56291;SDS011;54008;53.606;9.462;2022-12-18T18:58:39;23.27;;;9.27;;
56291;SDS011;54008;53.606;9.462;2022-12-18T19:01:26;36.13;;;10.40;;
56291;SDS011;54008;53.606;9.462;2022-12-18T19:03:51;32.08;;;11.02;;
56291;SDS011;54008;53.606;9.462;2022-12-18T19:06:18;30.33;;;11.55;;
56291;SDS011;54008;53.606;9.462;2022-12-18T19:11:11;27.35;;;9.07;;
56291;SDS011;54008;53.606;9.462;2022-12-18T19:13:57;22.23;;;8.70;;
56291;SDS011;54008;53.606;9.462;2022-12-18T19:16:23;29.33;;;9.88;;
56291;SDS011;54008;53.606;9.462;2022-12-18T19:18:49;23.92;;;9.95;;
56291;SDS011;54008;53.606;9.462;2022-12-18T19:21:14;21.20;;;8.10;;
